Time;durP1;ratioP1;P1;durP2;ratioP2;P2;SDS_P1;SDS_P2;PMS_P1;PMS_P2;Temp;Humidity;BMP_temperature;BMP_pressure;BME280_temperature;BME280_humidity;BME280_pressure;Samples;Min_cycle;Max_cycle;Signal;HPM_P1;HPM_P2
2022/07/24 00:02:20;;;;;;;10.20;9.18;;;;;;;22.02;48.13;93007.88;5054768;28;20251;-70
2022/07/24 00:04:46;;;;;;;15.95;10.68;;;;;;;21.92;48.41;93008.38;5056359;28;20183;-70
2022/07/24 00:07:11;;;;;;;11.68;9.48;;;;;;;21.84;47.95;93005.84;5059699;28;21317;-70
2022/07/24 00:09:36;;;;;;;13.52;9.82;;;;;;;21.86;48.50;93006.28;5060169;28;20214;-70
2022/07/24 00:12:02;;;;;;;11.38;9.82;;;;;;;21.79;47.81;93000.78;5058468;28;20339;-69
2022/07/24 00:14:28;;;;;;;12.63;8.73;;;;;;;21.78;47.68;92997.34;5059946;28;20186;-69
2022/07/24 00:16:53;;;;;;;10.52;9.60;;;;;;;21.81;48.80;93001.97;5059060;28;20231;-70
2022/07/24 00:19:19;;;;;;;9.90;8.80;;;;;;;21.75;50.78;93003.31;5060675;28;20210;-71
2022/07/24 00:21:44;;;;;;;10.32;9.43;;;;;;;21.56;50.18;92991.72;5057843;28;20293;-69
2022/07/24 00:24:10;;;;;;;14.48;10.60;;;;;;;21.37;49.13;92967.66;5060844;28;20195;-70
2022/07/24 00:26:35;;;;;;;10.98;9.57;;;;;;;21.50;49.57;92999.16;5058456;28;20233;-71
2022/07/24 00:29:01;;;;;;;10.65;9.35;;;;;;;21.54;50.11;93009.91;5058960;28;20252;-69
2022/07/24 00:31:26;;;;;;;10.88;9.82;;;;;;;21.46;50.06;92990.31;5057493;28;20218;-69
2022/07/24 00:33:52;;;;;;;12.52;9.90;;;;;;;21.53;50.60;93008.31;5059312;28;20193;-71
2022/07/24 00:36:17;;;;;;;10.77;9.73;;;;;;;21.45;50.35;93006.56;5059042;28;20244;-70
2022/07/24 00:38:43;;;;;;;12.30;9.75;;;;;;;21.42;49.28;93005.38;5061553;28;20179;-69
2022/07/24 00:41:08;;;;;;;10.40;9.55;;;;;;;21.45;49.93;93009.22;5059023;28;20232;-69
2022/07/24 00:43:34;;;;;;;10.80;9.77;;;;;;;21.45;49.48;92996.72;5060438;28;20180;-69
2022/07/24 00:45:59;;;;;;;9.90;8.15;;;;;;;21.47;48.65;92993.72;5056371;28;20260;-70
2022/07/24 00:48:25;;;;;;;10.15;9.27;;;;;;;21.50;47.78;93003.69;5056923;28;20243;-69
2022/07/24 00:50:51;;;;;;;13.75;9.30;;;;;;;21.48;47.49;92990.72;5053318;28;20234;-69
2022/07/24 00:53:17;;;;;;;11.18;9.40;;;;;;;21.41;46.88;92956.00;5059051;28;20186;-69
2022/07/24 00:55:43;;;;;;;11.32;10.15;;;;;;;21.63;46.21;92986.63;5058424;28;20193;-69
2022/07/24 00:58:08;;;;;;;14.73;8.80;;;;;;;21.79;45.25;92990.16;5058607;28;20224;-69
2022/07/24 01:00:34;;;;;;;9.85;8.93;;;;;;;21.86;44.64;92990.31;5057989;28;20255;-70
2022/07/24 01:02:59;;;;;;;13.43;9.80;;;;;;;21.85;44.48;92991.44;5058583;28;20922;-70
2022/07/24 01:05:25;;;;;;;14.65;9.02;;;;;;;21.88;44.87;92980.88;5058823;28;20213;-69
2022/07/24 01:07:50;;;;;;;10.32;9.32;;;;;;;21.93;44.65;92991.28;5059828;28;20237;-70
2022/07/24 01:10:16;;;;;;;10.15;9.18;;;;;;;21.98;43.69;92983.06;5059576;28;20220;-69
2022/07/24 01:12:41;;;;;;;9.77;8.65;;;;;;;22.06;42.78;92989.34;5059635;28;20255;-70
2022/07/24 01:15:09;;;;;;;10.02;9.07;;;;;;;22.01;44.48;92986.94;5060712;28;20201;-69
2022/07/24 01:17:36;;;;;;;9.98;8.63;;;;;;;21.90;44.97;92999.94;5056870;28;20231;-70
2022/07/24 01:20:04;;;;;;;11.73;8.98;;;;;;;21.82;46.81;92997.44;5058743;28;20207;-69
2022/07/24 01:22:30;;;;;;;9.50;8.57;;;;;;;21.79;47.11;92996.22;5059003;28;20222;-70
2022/07/24 01:24:56;;;;;;;11.10;9.50;;;;;;;21.65;47.32;92979.09;5058624;28;20195;-69
2022/07/24 01:27:22;;;;;;;10.43;9.55;;;;;;;21.58;47.87;92987.63;5056865;28;20223;-69
2022/07/24 01:29:48;;;;;;;10.50;9.52;;;;;;;21.50;48.53;92982.44;5061502;28;20209;-69
2022/07/24 01:32:14;;;;;;;11.30;10.32;;;;;;;21.51;48.28;92976.03;5056979;28;20244;-69
2022/07/24 01:34:40;;;;;;;14.90;10.32;;;;;;;21.44;49.46;92984.56;5057227;28;20213;-69
2022/07/24 01:37:06;;;;;;;10.73;9.70;;;;;;;21.38;50.60;92982.47;5058294;28;20234;-69
2022/07/24 01:39:31;;;;;;;10.75;9.60;;;;;;;21.14;50.91;92977.19;5056778;28;20189;-69
2022/07/24 01:41:57;;;;;;;10.60;9.55;;;;;;;21.21;50.42;92970.22;5056452;28;20233;-69
2022/07/24 01:44:22;;;;;;;13.48;10.82;;;;;;;21.09;50.83;92974.78;5059949;28;20192;-69
2022/07/24 01:46:48;;;;;;;11.98;9.93;;;;;;;21.14;51.21;92971.88;5058087;28;20232;-69
2022/07/24 01:49:13;;;;;;;10.45;9.65;;;;;;;21.08;51.44;92976.66;5060643;28;20188;-69
2022/07/24 01:51:39;;;;;;;11.55;10.18;;;;;;;20.94;51.83;92956.81;5057590;28;20269;-69
2022/07/24 01:54:04;;;;;;;15.13;10.88;;;;;;;20.88;52.11;92956.28;5056845;28;20180;-69
2022/07/24 01:56:31;;;;;;;13.07;11.55;;;;;;;20.96;52.36;92970.56;5055948;28;20229;-69
2022/07/24 01:58:56;;;;;;;13.38;10.68;;;;;;;20.66;54.18;92960.16;5056289;28;20231;-70
2022/07/24 02:01:21;;;;;;;14.95;10.50;;;;;;;20.76;53.05;92966.13;5059584;28;20232;-70
2022/07/24 02:03:48;;;;;;;17.38;10.88;;;;;;;20.68;53.48;92957.94;5059041;28;20280;-69
2022/07/24 02:06:13;;;;;;;11.50;10.40;;;;;;;20.72;53.73;92962.59;5056117;28;20232;-70
2022/07/24 02:08:39;;;;;;;14.13;10.75;;;;;;;20.59;53.94;92959.16;5056656;28;20194;-70
2022/07/24 02:11:04;;;;;;;14.82;11.07;;;;;;;20.72;53.26;92958.03;5056022;28;20241;-69
2022/07/24 02:13:30;;;;;;;13.00;10.82;;;;;;;20.70;53.46;92958.38;5060045;28;20188;-69
2022/07/24 02:15:56;;;;;;;11.43;10.43;;;;;;;20.60;52.94;92944.78;5056101;28;20232;-69
2022/07/24 02:18:21;;;;;;;14.82;10.43;;;;;;;20.53;53.03;92955.94;5060235;28;20189;-69
2022/07/24 02:20:47;;;;;;;12.00;10.83;;;;;;;20.41;53.37;92942.69;5056385;28;20232;-69
2022/07/24 02:23:17;;;;;;;14.13;10.80;;;;;;;20.54;52.28;92957.50;5061794;28;20189;-69
2022/07/24 02:25:44;;;;;;;11.57;10.38;;;;;;;20.60;52.33;92961.47;5057122;28;20198;-69
2022/07/24 02:28:09;;;;;;;10.75;9.68;;;;;;;20.56;53.74;92957.19;5061035;28;20184;-69
2022/07/24 02:30:34;;;;;;;11.43;10.43;;;;;;;20.60;53.29;92950.88;5057273;28;20230;-70
2022/07/24 02:33:00;;;;;;;11.63;10.05;;;;;;;20.56;53.26;92955.28;5056732;28;20189;-69
2022/07/24 02:35:25;;;;;;;11.00;10.00;;;;;;;20.53;53.31;92940.03;5055464;28;20182;-70
2022/07/24 02:37:51;;;;;;;17.02;10.77;;;;;;;20.54;52.79;92946.13;5058063;28;20233;-69
2022/07/24 02:40:16;;;;;;;14.37;9.87;;;;;;;20.44;54.21;92944.66;5060797;28;20184;-69
2022/07/24 02:42:43;;;;;;;14.45;10.32;;;;;;;20.47;54.08;92956.47;5062180;28;20247;-69
2022/07/24 02:45:08;;;;;;;12.15;10.40;;;;;;;20.40;54.06;92966.88;5062382;28;20201;-69
2022/07/24 02:47:35;;;;;;;12.55;10.77;;;;;;;20.33;52.79;92962.09;5062535;28;20256;-70
2022/07/24 02:50:02;;;;;;;11.88;10.50;;;;;;;20.34;52.47;92971.59;5060604;28;20208;-69
2022/07/24 02:52:27;;;;;;;12.15;10.55;;;;;;;20.27;52.46;92974.03;5061410;28;20228;-69
2022/07/24 02:54:53;;;;;;;16.20;11.75;;;;;;;20.31;52.55;92969.59;5061428;28;20184;-68
2022/07/24 02:57:19;;;;;;;11.73;10.73;;;;;;;20.34;53.24;92961.00;5059396;28;20218;-69
2022/07/24 02:59:49;;;;;;;12.02;10.82;;;;;;;20.41;52.99;92963.91;5061470;28;20188;-69
2022/07/24 03:02:15;;;;;;;11.48;10.57;;;;;;;20.33;53.69;92956.81;5059822;28;21110;-70
2022/07/24 03:04:40;;;;;;;13.82;10.25;;;;;;;20.28;54.13;92954.34;5058804;28;20268;-69
2022/07/24 03:07:06;;;;;;;11.82;10.65;;;;;;;20.30;54.42;92949.50;5061181;28;20251;-69
2022/07/24 03:09:31;;;;;;;10.97;9.83;;;;;;;20.38;54.77;92956.59;5059502;28;20208;-69
2022/07/24 03:11:56;;;;;;;12.93;10.43;;;;;;;20.34;54.80;92965.53;5060546;28;20240;-69
2022/07/24 03:14:22;;;;;;;13.75;11.07;;;;;;;20.19;55.84;92964.28;5061635;28;20193;-69
2022/07/24 03:16:47;;;;;;;11.93;10.68;;;;;;;20.32;55.42;92963.22;5058991;28;20843;-69
2022/07/24 03:19:12;;;;;;;13.32;10.60;;;;;;;20.24;56.36;92972.03;5062089;28;21673;-69
2022/07/24 03:21:38;;;;;;;11.18;9.77;;;;;;;20.16;56.64;92957.00;5061873;28;20279;-70
2022/07/24 03:24:03;;;;;;;16.13;11.20;;;;;;;20.29;55.94;92960.44;5062355;28;20202;-69
2022/07/24 03:26:29;;;;;;;12.00;10.50;;;;;;;20.58;54.91;92962.91;5058551;28;20227;-69
2022/07/24 03:28:54;;;;;;;11.63;10.43;;;;;;;20.53;54.95;92960.47;5061087;28;20687;-70
2022/07/24 03:31:20;;;;;;;11.65;10.18;;;;;;;20.59;55.20;92973.19;5060675;28;20227;-69
2022/07/24 03:33:45;;;;;;;11.60;10.57;;;;;;;20.50;54.89;92966.44;5062317;28;20199;-69
2022/07/24 03:36:10;;;;;;;10.95;10.05;;;;;;;20.67;54.20;92971.53;5061435;28;20237;-70
2022/07/24 03:38:36;;;;;;;11.77;10.27;;;;;;;20.76;53.31;92979.41;5061824;28;20205;-69
2022/07/24 03:41:01;;;;;;;14.18;10.02;;;;;;;20.91;51.75;92970.75;5059794;28;20228;-69
2022/07/24 03:43:26;;;;;;;11.23;10.18;;;;;;;21.03;52.19;92976.09;5060163;28;20249;-70
2022/07/24 03:45:52;;;;;;;17.65;10.35;;;;;;;21.10;52.99;92979.75;5060020;28;20224;-70
2022/07/24 03:48:17;;;;;;;10.95;10.05;;;;;;;21.18;53.68;92970.88;5060048;28;20183;-71
2022/07/24 03:50:43;;;;;;;11.55;10.45;;;;;;;21.26;53.56;92967.31;5059529;28;20267;-69
2022/07/24 03:53:08;;;;;;;12.57;11.48;;;;;;;21.37;53.89;92972.97;5061248;28;20185;-69
2022/07/24 03:55:34;;;;;;;11.70;9.98;;;;;;;21.56;53.50;92971.22;5061179;28;20204;-70
2022/07/24 03:57:59;;;;;;;16.02;10.75;;;;;;;21.74;53.01;92977.06;5062907;28;20192;-70
2022/07/24 04:00:24;;;;;;;11.10;9.93;;;;;;;21.89;52.91;92981.66;5061687;28;20210;-69
2022/07/24 04:02:50;;;;;;;11.02;9.80;;;;;;;22.02;53.16;92983.94;5061809;28;20241;-70
2022/07/24 04:05:15;;;;;;;11.40;10.48;;;;;;;22.15;52.69;92971.34;5060699;28;20191;-70
2022/07/24 04:07:41;;;;;;;10.75;9.65;;;;;;;22.23;53.09;92973.09;5061168;28;20244;-69
2022/07/24 04:10:07;;;;;;;14.98;10.30;;;;;;;22.29;52.35;92960.31;5059679;28;20208;-69
2022/07/24 04:12:33;;;;;;;11.32;10.07;;;;;;;22.18;52.21;92960.81;5057815;28;20235;-69
2022/07/24 04:14:58;;;;;;;13.73;8.27;;;;;;;22.15;52.35;92952.72;5058616;28;20194;-69
2022/07/24 04:17:25;;;;;;;11.55;10.20;;;;;;;22.30;53.10;92967.19;5057740;28;20232;-69
2022/07/24 04:19:50;;;;;;;11.00;10.02;;;;;;;22.45;52.27;92964.53;5062500;28;20199;-69
2022/07/24 04:22:16;;;;;;;12.05;9.88;;;;;;;22.30;53.12;92969.84;5058491;28;20769;-69
2022/07/24 04:24:41;;;;;;;12.38;10.48;;;;;;;22.05;52.58;92974.50;5060368;28;20214;-69
2022/07/24 04:27:07;;;;;;;13.02;10.23;;;;;;;21.81;54.28;92987.91;5059035;28;20233;-71
2022/07/24 04:29:32;;;;;;;16.38;10.02;;;;;;;21.95;52.10;92981.09;5062554;28;20241;-70
2022/07/24 04:31:58;;;;;;;10.93;10.02;;;;;;;22.58;51.70;92978.56;5055872;28;20253;-69
2022/07/24 04:34:24;;;;;;;13.00;10.57;;;;;;;22.88;51.36;92977.78;5059610;28;20249;-70
2022/07/24 04:36:49;;;;;;;12.73;10.07;;;;;;;23.09;52.47;92972.97;5058825;28;20225;-69
2022/07/24 04:39:15;;;;;;;14.70;10.23;;;;;;;22.91;52.70;92923.81;5060881;28;20259;-70
2022/07/24 04:41:40;;;;;;;10.55;9.50;;;;;;;23.39;52.29;92974.00;5057075;28;20237;-70
2022/07/24 04:44:06;;;;;;;11.50;10.25;;;;;;;23.52;51.25;92964.78;5061258;28;20211;-69
2022/07/24 04:46:31;;;;;;;11.00;10.02;;;;;;;23.49;50.14;92980.69;5061012;28;20262;-70
2022/07/24 04:48:57;;;;;;;11.48;9.18;;;;;;;23.75;50.40;92986.97;5058269;28;20213;-70
2022/07/24 04:51:22;;;;;;;12.65;11.27;;;;;;;23.63;47.08;92981.78;5058522;28;20238;-68
2022/07/24 04:53:47;;;;;;;13.60;10.82;;;;;;;23.98;47.36;92991.66;5061152;28;20206;-71
2022/07/24 04:56:13;;;;;;;13.13;11.73;;;;;;;24.07;45.21;93000.19;5058135;28;20250;-68
2022/07/24 04:58:38;;;;;;;17.55;12.00;;;;;;;24.23;45.39;92987.56;5059800;28;20191;-69
2022/07/24 05:01:04;;;;;;;12.95;11.73;;;;;;;24.47;44.19;92997.91;5061741;28;20850;-70
2022/07/24 05:03:29;;;;;;;12.60;11.40;;;;;;;24.35;45.23;92996.19;5060930;28;20217;-69
2022/07/24 05:05:54;;;;;;;13.77;11.15;;;;;;;24.29;46.16;92996.81;5059750;28;20299;-69
2022/07/24 05:08:20;;;;;;;12.98;11.68;;;;;;;24.55;46.89;93003.03;5060346;28;20202;-70
2022/07/24 05:10:46;;;;;;;13.10;11.63;;;;;;;24.92;45.50;93003.28;5059090;28;20206;-70
2022/07/24 05:13:12;;;;;;;12.70;11.32;;;;;;;24.89;46.83;92994.09;5058348;28;20208;-70
2022/07/24 05:15:37;;;;;;;16.10;11.80;;;;;;;25.00;46.03;92996.94;5058258;28;20189;-70
2022/07/24 05:18:03;;;;;;;13.77;11.40;;;;;;;24.71;46.74;92989.59;5056913;28;20214;-70
2022/07/24 05:20:28;;;;;;;14.15;10.85;;;;;;;24.13;47.17;92982.78;5057960;28;20190;-72
2022/07/24 05:22:54;;;;;;;13.05;11.73;;;;;;;24.63;47.03;92998.56;5059315;28;20184;-70
2022/07/24 05:29:33;;;;;;;17.10;11.60;;;;;;;24.86;49.15;93018.84;5126545;27;20352;-71
2022/07/24 05:31:58;;;;;;;14.10;12.50;;;;;;;25.32;45.15;93022.28;5101065;27;20221;-71
2022/07/24 05:34:24;;;;;;;14.35;12.98;;;;;;;25.63;45.67;93016.63;5086681;28;20187;-71
2022/07/24 05:36:50;;;;;;;15.93;12.23;;;;;;;25.71;45.01;93012.94;5086172;28;20215;-72
2022/07/24 05:39:15;;;;;;;14.50;12.40;;;;;;;25.76;45.19;93009.91;5086552;28;20247;-71
2022/07/24 05:41:40;;;;;;;16.13;12.60;;;;;;;25.98;44.29;93008.28;5086654;28;20239;-71
2022/07/24 05:44:06;;;;;;;19.20;12.13;;;;;;;25.84;44.73;93008.88;5086732;28;20182;-71
2022/07/24 05:46:31;;;;;;;15.77;12.50;;;;;;;25.78;44.22;93007.66;5086772;28;20223;-71
2022/07/24 05:48:57;;;;;;;13.40;11.63;;;;;;;25.85;44.27;93013.13;5086767;28;20271;-72
2022/07/24 05:51:22;;;;;;;17.02;12.15;;;;;;;26.47;41.96;93015.03;5085938;28;20229;-71
2022/07/24 05:53:48;;;;;;;15.45;13.20;;;;;;;29.37;36.60;93019.72;5086432;28;20215;-71
2022/07/24 05:56:13;;;;;;;14.23;11.77;;;;;;;30.94;32.31;92993.44;5085954;28;20235;-72
2022/07/24 05:58:38;;;;;;;11.98;10.77;;;;;;;34.26;27.39;93045.75;5086625;28;20181;-71
2022/07/24 06:01:04;;;;;;;11.40;10.27;;;;;;;37.06;24.23;93043.00;5085890;28;20239;-72
2022/07/24 06:03:29;;;;;;;12.40;10.20;;;;;;;38.86;21.96;93043.28;5084624;28;20471;-69
2022/07/24 06:05:55;;;;;;;13.88;10.68;;;;;;;38.73;21.87;93043.38;5085977;28;20236;-69
2022/07/24 06:08:20;;;;;;;14.00;10.55;;;;;;;39.02;21.78;93043.13;5085889;28;20307;-69
2022/07/24 06:10:46;;;;;;;12.82;11.10;;;;;;;40.35;20.42;93046.00;5085547;28;20331;-69
2022/07/24 06:13:11;;;;;;;12.70;10.35;;;;;;;40.10;20.42;93035.31;5085961;28;20188;-70
2022/07/24 06:15:36;;;;;;;10.07;9.07;;;;;;;40.94;19.52;93044.63;5086185;28;20188;-72
2022/07/24 06:18:02;;;;;;;13.73;9.57;;;;;;;40.69;20.42;93026.56;5086077;28;20189;-70
2022/07/24 06:20:27;;;;;;;11.48;9.23;;;;;;;42.04;19.11;93046.53;5086305;28;20192;-70
2022/07/24 06:22:53;;;;;;;11.35;9.35;;;;;;;40.06;20.37;93045.66;5085635;28;20217;-71
2022/07/24 06:25:18;;;;;;;11.60;9.52;;;;;;;41.94;18.86;93056.03;5085260;28;20189;-70
2022/07/24 06:27:47;;;;;;;10.10;8.95;;;;;;;41.13;19.50;93048.88;5085053;28;20236;-70
2022/07/24 06:30:18;;;;;;;12.18;9.98;;;;;;;40.60;19.58;93048.44;5086008;28;20193;-70
2022/07/24 06:32:44;;;;;;;10.75;9.60;;;;;;;41.08;19.26;93046.72;5085117;28;20227;-70
2022/07/24 06:35:10;;;;;;;11.85;9.98;;;;;;;41.25;18.73;93034.22;5084302;28;20193;-70
2022/07/24 06:37:36;;;;;;;12.48;10.35;;;;;;;40.45;19.16;93033.84;5084345;28;20223;-68
2022/07/24 06:40:02;;;;;;;10.30;9.23;;;;;;;40.42;19.60;93034.78;5077073;28;20189;-69
2022/07/24 06:42:28;;;;;;;10.13;9.13;;;;;;;38.66;21.55;93010.88;5071578;28;20939;-71
2022/07/24 06:44:53;;;;;;;12.25;10.27;;;;;;;36.26;24.27;93011.38;5072574;28;20209;-70
2022/07/24 06:47:19;;;;;;;13.00;10.38;;;;;;;34.06;25.55;92983.41;5072214;28;20225;-70
2022/07/24 06:49:44;;;;;;;16.40;11.30;;;;;;;31.43;29.63;92986.19;5071615;28;20189;-70
2022/07/24 06:52:09;;;;;;;13.45;10.70;;;;;;;31.33;28.50;92992.44;5071602;28;20229;-70
2022/07/24 06:54:35;;;;;;;14.73;10.43;;;;;;;30.53;29.90;92989.06;5071335;28;20194;-69
2022/07/24 06:57:01;;;;;;;13.15;10.70;;;;;;;29.59;31.62;92988.94;5071255;28;20225;-69
2022/07/24 06:59:26;;;;;;;11.52;10.43;;;;;;;29.90;31.03;92986.59;5072190;28;20198;-69
2022/07/24 07:01:51;;;;;;;12.50;11.27;;;;;;;29.91;31.54;92991.59;5071556;28;20225;-70
2022/07/24 07:04:17;;;;;;;16.17;11.52;;;;;;;29.43;32.50;92996.66;5071822;28;20178;-69
2022/07/24 07:06:42;;;;;;;14.07;12.27;;;;;;;28.92;33.75;92996.25;5071378;28;20267;-70
2022/07/24 07:09:08;;;;;;;13.20;12.10;;;;;;;28.77;35.10;92994.69;5071242;28;20213;-69
2022/07/24 07:11:33;;;;;;;16.38;12.35;;;;;;;29.34;33.40;92984.78;5071458;28;20241;-71
2022/07/24 07:13:58;;;;;;;11.93;10.90;;;;;;;29.39;33.93;92989.75;5072088;28;20191;-69
2022/07/24 07:16:24;;;;;;;12.70;11.50;;;;;;;29.48;32.86;92985.50;5071248;28;21110;-71
2022/07/24 07:18:49;;;;;;;12.35;11.15;;;;;;;28.92;34.14;92996.25;5071820;28;20181;-69
2022/07/24 07:21:14;;;;;;;13.25;12.00;;;;;;;29.15;33.92;92983.22;5071059;28;20228;-69
2022/07/24 07:23:40;;;;;;;12.95;11.15;;;;;;;29.58;32.70;92986.66;5070891;28;20183;-69
2022/07/24 07:26:05;;;;;;;12.93;11.55;;;;;;;29.23;33.73;92984.00;5071069;28;20238;-69
2022/07/24 07:28:31;;;;;;;17.58;11.60;;;;;;;28.61;35.48;92980.84;5071394;28;20217;-72
2022/07/24 07:30:56;;;;;;;15.95;11.43;;;;;;;28.91;34.54;92994.72;5070893;28;20225;-71
2022/07/24 07:33:21;;;;;;;16.27;12.13;;;;;;;29.05;33.34;92973.22;5071584;28;20203;-71
2022/07/24 07:35:47;;;;;;;13.93;11.70;;;;;;;29.08;35.27;92988.59;5070929;28;20203;-71
2022/07/24 07:38:13;;;;;;;16.23;12.57;;;;;;;28.91;34.97;92989.34;5071190;28;20188;-71
2022/07/24 07:40:38;;;;;;;12.90;11.48;;;;;;;28.90;37.72;92987.03;5070773;28;20272;-72
2022/07/24 07:43:03;;;;;;;14.60;12.25;;;;;;;28.74;36.90;92994.69;5071312;28;20193;-71
2022/07/24 07:45:29;;;;;;;15.07;12.13;;;;;;;28.43;36.29;92995.34;5071194;28;20193;-72
2022/07/24 07:47:54;;;;;;;20.52;12.57;;;;;;;28.56;34.98;92989.28;5071498;28;20262;-71
2022/07/24 07:50:20;;;;;;;12.90;11.52;;;;;;;28.92;35.18;92995.50;5070542;28;20197;-72
2022/07/24 07:52:45;;;;;;;13.93;11.55;;;;;;;29.35;35.13;92976.31;5068934;28;20224;-71
2022/07/24 07:55:11;;;;;;;14.82;12.70;;;;;;;28.30;35.64;92978.81;5070896;28;20208;-71
2022/07/24 07:57:37;;;;;;;16.17;11.80;;;;;;;29.26;33.49;92973.22;5070572;28;20227;-71
2022/07/24 08:00:03;;;;;;;15.27;11.63;;;;;;;29.77;34.57;92974.72;5070231;28;20190;-71
2022/07/24 08:02:29;;;;;;;14.82;12.95;;;;;;;29.86;33.16;92985.84;5070609;28;20233;-70
2022/07/24 08:04:54;;;;;;;16.45;11.85;;;;;;;29.56;34.37;92989.72;5070599;28;21181;-69
2022/07/24 08:07:20;;;;;;;13.07;11.80;;;;;;;29.46;34.32;92987.84;5070159;28;20224;-69
2022/07/24 08:09:45;;;;;;;14.43;13.05;;;;;;;29.17;34.26;92983.59;5070620;28;20189;-69
2022/07/24 08:12:11;;;;;;;14.95;12.00;;;;;;;29.11;35.75;92993.22;5070221;28;20224;-70
2022/07/24 08:14:36;;;;;;;14.38;11.88;;;;;;;29.88;34.63;92997.00;5070306;28;20197;-69
2022/07/24 08:17:02;;;;;;;16.42;12.35;;;;;;;29.69;34.27;92988.19;5070086;28;20230;-69
2022/07/24 08:19:28;;;;;;;13.85;11.63;;;;;;;29.66;35.06;92975.53;5070713;28;20181;-69
2022/07/24 08:21:53;;;;;;;13.38;11.82;;;;;;;29.55;34.84;92974.75;5068884;28;20250;-70
2022/07/24 08:24:20;;;;;;;15.77;12.52;;;;;;;30.44;33.68;92997.59;5070290;28;20270;-69
2022/07/24 08:26:49;;;;;;;19.27;11.10;;;;;;;29.99;33.69;92990.44;5069377;28;20284;-70
2022/07/24 08:29:14;;;;;;;13.55;12.15;;;;;;;30.04;33.68;92997.34;5067935;28;20244;-69
2022/07/24 08:31:40;;;;;;;13.90;12.48;;;;;;;30.31;32.87;92993.00;5069913;28;20225;-70
2022/07/24 08:34:05;;;;;;;15.52;13.27;;;;;;;30.39;32.85;92994.53;5068500;28;20228;-69
2022/07/24 08:36:31;;;;;;;13.82;11.18;;;;;;;31.55;32.56;92999.19;5069531;28;20236;-70
2022/07/24 08:38:56;;;;;;;20.92;12.25;;;;;;;31.67;31.69;93002.16;5070265;28;20196;-69
2022/07/24 08:41:22;;;;;;;18.92;12.45;;;;;;;32.25;30.21;93004.63;5069659;28;20281;-71
2022/07/24 08:43:47;;;;;;;14.23;12.20;;;;;;;32.12;31.54;93000.94;5069708;28;20244;-69
2022/07/24 08:46:14;;;;;;;13.60;12.23;;;;;;;31.21;32.22;93007.13;5070080;28;20228;-70
2022/07/24 08:48:44;;;;;;;15.23;12.32;;;;;;;31.62;32.11;92999.88;5069643;28;20231;-69
2022/07/24 08:51:11;;;;;;;14.18;12.02;;;;;;;31.92;31.77;92997.31;5069468;28;20256;-70
2022/07/24 08:53:36;;;;;;;16.30;12.15;;;;;;;31.47;31.49;92998.50;5069163;28;20186;-70
2022/07/24 08:56:02;;;;;;;17.27;11.75;;;;;;;31.37;32.73;92982.38;5069157;28;20229;-69
2022/07/24 08:58:27;;;;;;;14.40;11.95;;;;;;;31.59;33.90;92989.09;5069183;28;20181;-68
2022/07/24 09:00:53;;;;;;;15.20;11.38;;;;;;;31.92;32.20;92991.13;5069140;28;20225;-70
2022/07/24 09:03:18;;;;;;;13.15;11.60;;;;;;;31.62;33.31;92999.88;5069573;28;20209;-70
2022/07/24 09:05:55;;;;;;;12.95;11.43;;;;;;;30.52;34.12;92998.31;5069247;28;20212;-70
2022/07/24 09:08:21;;;;;;;14.75;13.25;;;;;;;30.71;33.39;92997.84;5069091;28;20223;-70
2022/07/24 09:11:18;;;;;;;16.73;12.70;;;;;;;30.52;33.80;92992.94;5069040;28;20189;-70
2022/07/24 09:16:28;;;;;;;14.25;12.77;;;;;;;31.22;34.65;92987.09;5068927;28;20232;-71
2022/07/24 09:19:07;;;;;;;17.05;12.90;;;;;;;31.04;33.88;93002.63;5069024;28;20181;-71
2022/07/24 09:21:35;;;;;;;18.65;12.13;;;;;;;30.74;34.95;92999.75;5068372;28;20280;-70
2022/07/24 09:24:10;;;;;;;15.30;12.15;;;;;;;30.46;35.56;92991.81;5069044;28;20308;-70
2022/07/24 09:27:13;;;;;;;13.70;11.95;;;;;;;30.17;36.56;92987.66;5069287;28;20250;-70
2022/07/24 09:29:38;;;;;;;17.40;12.77;;;;;;;29.79;36.67;92986.66;5056852;28;20227;-71
2022/07/24 09:32:04;;;;;;;14.38;12.85;;;;;;;29.83;36.60;92984.69;5069476;28;20263;-70
2022/07/24 09:34:38;;;;;;;16.92;12.82;;;;;;;30.46;35.92;92981.78;5069785;28;20184;-71
2022/07/24 09:37:06;;;;;;;13.95;12.63;;;;;;;30.80;36.07;92993.53;5068708;28;20782;-71
2022/07/24 09:39:35;;;;;;;21.05;13.52;;;;;;;30.42;36.41;92986.44;5068701;28;20200;-70
2022/07/24 09:42:02;;;;;;;16.67;12.25;;;;;;;31.06;36.08;92994.91;5069472;28;20221;-70
2022/07/24 09:44:29;;;;;;;14.75;13.18;;;;;;;31.26;35.56;92977.03;5068633;28;20197;-71
2022/07/24 09:46:58;;;;;;;16.45;11.95;;;;;;;31.33;34.14;92985.13;5069696;28;20220;-70
2022/07/24 09:49:24;;;;;;;13.57;12.25;;;;;;;31.27;34.41;92977.81;5067619;28;20216;-70
2022/07/24 09:52:12;;;;;;;16.65;12.57;;;;;;;31.63;33.91;92985.19;5067934;28;20221;-71
2022/07/24 09:54:49;;;;;;;12.50;11.20;;;;;;;31.65;31.19;92980.19;5068193;28;20216;-70
2022/07/24 09:57:23;;;;;;;11.00;9.98;;;;;;;31.88;29.08;92974.19;5068105;28;20209;-70
2022/07/24 10:00:01;;;;;;;11.95;9.82;;;;;;;31.33;26.09;92968.13;5069048;28;20192;-70
2022/07/24 10:02:33;;;;;;;11.07;9.98;;;;;;;31.75;28.29;92973.91;5068385;28;20231;-71
2022/07/24 10:05:01;;;;;;;12.30;10.35;;;;;;;31.73;28.35;92968.16;5069144;28;20193;-70
2022/07/24 10:07:28;;;;;;;10.68;9.65;;;;;;;32.14;26.76;92968.84;5068544;28;20218;-70
2022/07/24 10:09:56;;;;;;;11.80;9.88;;;;;;;32.64;26.06;92966.34;5066568;28;20275;-70
2022/07/24 10:12:29;;;;;;;12.63;10.10;;;;;;;32.88;25.05;92978.75;5068621;28;20221;-71
2022/07/24 10:14:56;;;;;;;13.52;8.75;;;;;;;32.54;26.61;92970.72;5068921;28;20204;-71
2022/07/24 10:17:33;;;;;;;11.38;9.93;;;;;;;32.29;24.51;92974.88;5072010;28;20311;-71
2022/07/24 10:20:03;;;;;;;13.95;8.65;;;;;;;33.03;25.81;92977.38;5072343;28;20185;-71
2022/07/24 10:22:44;;;;;;;10.65;9.57;;;;;;;33.29;24.38;92973.13;5072361;28;20277;-71
2022/07/24 10:25:18;;;;;;;10.25;9.40;;;;;;;33.39;23.69;92966.81;5071625;28;20205;-70
2022/07/24 10:27:51;;;;;;;10.27;9.30;;;;;;;32.67;25.48;92971.69;5071951;28;20226;-70
2022/07/24 10:30:17;;;;;;;9.80;8.90;;;;;;;32.97;24.86;92972.84;5071840;28;21065;-71
2022/07/24 10:32:42;;;;;;;10.80;9.65;;;;;;;32.32;23.31;92971.34;5072125;28;20229;-70
2022/07/24 10:35:17;;;;;;;10.98;9.85;;;;;;;32.93;23.58;92961.31;5072357;28;20196;-70
2022/07/24 10:37:54;;;;;;;14.10;9.52;;;;;;;33.18;24.42;92962.47;5071904;28;20283;-70
2022/07/24 10:40:29;;;;;;;10.48;9.45;;;;;;;32.94;25.45;92963.59;5071846;28;20220;-71
2022/07/24 10:43:09;;;;;;;11.60;9.88;;;;;;;32.72;24.62;92965.03;5071019;28;20204;-70
2022/07/24 10:45:45;;;;;;;10.95;9.80;;;;;;;32.38;26.04;92959.72;5071750;28;20190;-70
2022/07/24 10:48:20;;;;;;;11.50;10.40;;;;;;;32.13;28.08;92953.81;5072539;28;20220;-70
2022/07/24 10:51:05;;;;;;;13.98;10.43;;;;;;;32.29;26.90;92959.44;5071630;28;20181;-71
2022/07/24 10:53:37;;;;;;;11.23;10.32;;;;;;;32.30;25.72;92958.25;5072247;28;20190;-69
2022/07/24 10:56:15;;;;;;;12.95;10.23;;;;;;;32.64;25.24;92958.97;5071678;28;20221;-70
2022/07/24 10:58:55;;;;;;;11.75;10.48;;;;;;;32.62;25.86;92955.16;5071898;28;20201;-70
2022/07/24 11:01:44;;;;;;;12.50;10.63;;;;;;;32.81;25.75;92953.72;5070111;28;20248;-70
2022/07/24 11:04:19;;;;;;;12.13;11.02;;;;;;;32.73;26.40;92947.66;5071298;28;20181;-71
2022/07/24 11:06:54;;;;;;;11.50;10.38;;;;;;;32.80;25.95;92942.13;5071253;28;20224;-71
2022/07/24 11:09:22;;;;;;;11.23;9.82;;;;;;;32.83;25.73;92935.16;5071380;28;20212;-70
2022/07/24 11:11:50;;;;;;;12.25;11.15;;;;;;;32.51;24.88;92936.38;5071360;28;20226;-70
2022/07/24 11:14:38;;;;;;;11.23;10.32;;;;;;;32.17;25.09;92932.91;5071898;28;20189;-71
2022/07/24 11:17:42;;;;;;;11.57;10.48;;;;;;;32.63;25.72;92940.44;5060089;28;20236;-70
2022/07/24 11:20:12;;;;;;;11.07;9.98;;;;;;;32.62;24.42;92936.97;5070440;28;20181;-70
2022/07/24 11:22:39;;;;;;;11.48;10.10;;;;;;;33.21;23.90;92931.09;5071222;28;20221;-70
2022/07/24 11:25:06;;;;;;;11.68;9.73;;;;;;;33.08;23.86;92922.78;5071304;28;20189;-71
2022/07/24 11:27:48;;;;;;;11.18;10.18;;;;;;;32.75;24.45;92923.66;5070805;28;20229;-70